Festivo — EAEQ — position and weather

sailwx.info

Track history (hours):
 
Tides and Currents Weather Stations Pressure Air Temp Water Temp Dewpoint Dewpoint Depression Visibility Wind Speed Wind Dir Waves Ship Positions

Festivo

Last reported at 2017-Feb-18 17:33 UTC. Time now 2017-Feb-24 21:35 UTC.
Position N 35°54' W 005°09'.

Length 136 m; draft 4.5 m.

Type: Cargo ship. MMSI: 225410000.

Date/timePositionNaut miles runAvg speedWind from/ knotsBaromVisibWave heightAir tempDewpointWater temp
2017-Feb-18 17:33N 35°54' W 005°09'8 8.0
2017-Feb-18 16:31N 35°54' W 005°19'0 0.0
2017-Feb-18 15:31N 35°54' W 005°19'0 0.0
2017-Feb-18 14:31N 35°54' W 005°19'0 0.0
2017-Feb-18 13:31N 35°54' W 005°19'0 0.0
2017-Feb-18 12:31N 35°54' W 005°19'0 0.0
2017-Feb-18 11:31N 35°54' W 005°19'0 0.0
2017-Feb-18 10:31N 35°54' W 005°19'0 0.0
2017-Feb-18 09:31N 35°54' W 005°19'0 0.3
2017-Feb-18 08:34N 35°54' W 005°19'6 5.9
2017-Feb-18 07:33N 35°58' W 005°14'1110.2
2017-Feb-18 06:29N 36°06' W 005°05'  
2017-Feb-14 10:19N 36°02' W 005°09'811.1
2017-Feb-14 09:33N 35°56' W 005°16'3 3.5
2017-Feb-14 08:33N 35°54' W 005°19'0 0.0
2017-Feb-14 07:33N 35°54' W 005°19'0 0.0
2017-Feb-14 06:33N 35°54' W 005°19'0 0.1
2017-Feb-14 05:33N 35°54' W 005°19'5 5.3
2017-Feb-14 04:33N 35°58' W 005°15'6 5.8
2017-Feb-14 03:33N 36°01' W 005°09'7 7.3
2017-Feb-14 02:33N 36°06' W 005°03'  
2017-Feb-11 17:33N 35°54' W 005°11'7 6.5
2017-Feb-11 16:33N 35°54' W 005°19'0 0.0
2017-Feb-11 15:33N 35°54' W 005°19'0 0.0
2017-Feb-11 14:33N 35°54' W 005°19'0 0.0
2017-Feb-11 13:33N 35°54' W 005°19'0 0.0
2017-Feb-11 12:33N 35°54' W 005°19'0 0.0
2017-Feb-11 11:33N 35°54' W 005°19'0 0.0
2017-Feb-11 10:33N 35°54' W 005°19'0 0.0
2017-Feb-11 09:33N 35°54' W 005°19'0 0.0
2017-Feb-11 08:34N 35°54' W 005°19'7 6.5
2017-Feb-11 07:33N 35°58' W 005°13'10 9.7
2017-Feb-11 06:31N 36°05' W 005°05'3 0.1
2017-Feb-09 13:33N 36°07' W 005°02'1111.4
2017-Feb-09 12:34N 35°59' W 005°12'8 7.6
2017-Feb-09 11:31N 35°54' W 005°19'0 0.0
2017-Feb-09 10:31N 35°54' W 005°19'0 0.0
2017-Feb-09 09:31N 35°54' W 005°19'3 3.1
2017-Feb-09 08:33N 35°56' W 005°17'9 9.4
2017-Feb-09 07:33N 36°03' W 005°09'10 9.9
2017-Feb-09 06:33N 36°09' W 004°59'1110.9
2017-Feb-09 05:33N 36°17' W 004°50'  
Track history (hours):
 
Tides and Currents Weather Stations Pressure Air Temp Water Temp Dewpoint Dewpoint Depression Visibility Wind Speed Wind Dir Waves Ship Positions

Festivo

Last reported at 2017-Feb-18 17:33 UTC. Time now 2017-Feb-24 21:35 UTC.
Position N 35°54' W 005°09'.

Length 136 m; draft 4.5 m.

Type: Cargo ship. MMSI: 225410000.

Date/timePositionNaut miles runAvg speedWind from/ knotsBaromVisibWave heightAir tempDewpointWater temp
2017-Feb-18 17:33N 35°54' W 005°09'8 8.0
2017-Feb-18 16:31N 35°54' W 005°19'0 0.0
2017-Feb-18 15:31N 35°54' W 005°19'0 0.0
2017-Feb-18 14:31N 35°54' W 005°19'0 0.0
2017-Feb-18 13:31N 35°54' W 005°19'0 0.0
2017-Feb-18 12:31N 35°54' W 005°19'0 0.0
2017-Feb-18 11:31N 35°54' W 005°19'0 0.0
2017-Feb-18 10:31N 35°54' W 005°19'0 0.0
2017-Feb-18 09:31N 35°54' W 005°19'0 0.3
2017-Feb-18 08:34N 35°54' W 005°19'6 5.9
2017-Feb-18 07:33N 35°58' W 005°14'1110.2
2017-Feb-18 06:29N 36°06' W 005°05'  
2017-Feb-14 10:19N 36°02' W 005°09'811.1
2017-Feb-14 09:33N 35°56' W 005°16'3 3.5
2017-Feb-14 08:33N 35°54' W 005°19'0 0.0
2017-Feb-14 07:33N 35°54' W 005°19'0 0.0
2017-Feb-14 06:33N 35°54' W 005°19'0 0.1
2017-Feb-14 05:33N 35°54' W 005°19'5 5.3
2017-Feb-14 04:33N 35°58' W 005°15'6 5.8
2017-Feb-14 03:33N 36°01' W 005°09'7 7.3
2017-Feb-14 02:33N 36°06' W 005°03'  
2017-Feb-11 17:33N 35°54' W 005°11'7 6.5
2017-Feb-11 16:33N 35°54' W 005°19'0 0.0
2017-Feb-11 15:33N 35°54' W 005°19'0 0.0
2017-Feb-11 14:33N 35°54' W 005°19'0 0.0
2017-Feb-11 13:33N 35°54' W 005°19'0 0.0
2017-Feb-11 12:33N 35°54' W 005°19'0 0.0
2017-Feb-11 11:33N 35°54' W 005°19'0 0.0
2017-Feb-11 10:33N 35°54' W 005°19'0 0.0
2017-Feb-11 09:33N 35°54' W 005°19'0 0.0
2017-Feb-11 08:34N 35°54' W 005°19'7 6.5
2017-Feb-11 07:33N 35°58' W 005°13'10 9.7
2017-Feb-11 06:31N 36°05' W 005°05'3 0.1
2017-Feb-09 13:33N 36°07' W 005°02'1111.4
2017-Feb-09 12:34N 35°59' W 005°12'8 7.6
2017-Feb-09 11:31N 35°54' W 005°19'0 0.0
2017-Feb-09 10:31N 35°54' W 005°19'0 0.0
2017-Feb-09 09:31N 35°54' W 005°19'3 3.1
2017-Feb-09 08:33N 35°56' W 005°17'9 9.4
2017-Feb-09 07:33N 36°03' W 005°09'10 9.9
2017-Feb-09 06:33N 36°09' W 004°59'1110.9
2017-Feb-09 05:33N 36°17' W 004°50'  

Dump ship's entire track history